Tocumen, Panama

3:36 PM EST en Junio 25, 2017 (GMT -0500)
Tocumen International | | Change Station

Alt 36 ft 9.05 °N, 79.37 °W | Updated 36 minutes ago

Mostly Cloudy
Muy nublado
86 ° F
Sensación térmica 99 ° F
N
6
Viento Variable Viento desde Este

Hoy
Alta -- | Baja -- ° F
--% Posibilidad de precipitaciones
Ayer
Alta -- | Baja -- ° F
Precip. -- pul
Presión 29.86 pul
Visibilidad 6.2 Millas
Nubes Nubes dispersas 1800 ft
Muy nublado 9000 ft
Índice de calor 99 ° F
Punto de rocío 79 ° F
Humedad 79%
Precipitaciones 0.00 pul
Espesor de la nieve No disponible.
6:00 AM 6:39 PM
Creciente, 5% visible
METAR MPTO 252000Z 09005KT 9999 SCT018TCU BKN090 30/26 Q1011 NOSIG RMK TCU NE
Presión 29.86 pul
Visibilidad 6.2 Millas
Nubes Nubes dispersas 1800 ft
Muy nublado 9000 ft
Índice de calor 99 ° F
Punto de rocío 79 ° F
Humedad 79%
Precipitaciones 0.00 pul
Espesor de la nieve No disponible.
6:00 AM 6:39 PM
Creciente, 5% visible
METAR MPTO 252000Z 09005KT 9999 SCT018TCU BKN090 30/26 Q1011 NOSIG RMK TCU NE

Get Severe Weather Alerts

Thanks for signing up!

Be on the lookout for a verification email in your inbox.

You'll start receiving the daily forecast at 6 AM.

×

10-Day Weather Forecast

No radar image for this location.
×

Almanac

Astronomía

Jun. 25, 2017 Salida Puesta
Hora real
Crepúsculo civil
Crepúsculo náutico
Crepúsculo astronómico
Luna
Horas de luz
Horas de luz
Tomorrow will be .
, % of the Moon is Illuminated

Extremos de hoy

Máximos del país Bajas del país

Community

WunderPhotos

Category 6

Welcome to Category 6. This is the collective home for Weather Underground's featured writeups by Dr. Jeff Masters (right), Bob Henson (left), Chris Burt, and other regular contributors.

Nearby

Calidad del aire

  Calidad del aire Índice AQ Contaminante
Not available.

Grosos de nieve

Estación Profundido Altura

Actividad de terremotos

Ciudad Distance Mag. Tiempo y dato
Magnitud mínima muestra es 2,5.

Temperaturas de aguas costeras

Lugar Temperatura

Stations

Estaciones meteorológicas cercanas

Ubicación de la estación Temp. Vientos helados Punto de rocío Humedad Viento Precip. Alt Actualizado Tipo